Time;durP1;ratioP1;P1;durP2;ratioP2;P2;SDS_P1;SDS_P2;PMS_P1;PMS_P2;Temp;Humidity;BMP_temperature;BMP_pressure;BME280_temperature;BME280_humidity;BME280_pressure;Samples;Min_cycle;Max_cycle;Signal;HPM_P1;HPM_P2
2022/10/25 00:00:57;;;;;;;7.03;5.50;;;;;;;-143.84;65.47;45098.56;5089878;28;20446;-75
2022/10/25 00:03:24;;;;;;;6.93;6.23;;;;;;;-143.84;65.89;45087.16;5090527;28;20504;-75
2022/10/25 00:05:51;;;;;;;12.03;6.53;;;;;;;-143.84;67.19;45092.88;5090028;28;20464;-75
2022/10/25 00:08:18;;;;;;;10.77;7.07;;;;;;;-143.84;67.30;45108.09;5090348;28;20454;-75
2022/10/25 00:10:45;;;;;;;8.80;7.20;;;;;;;-143.84;67.21;45106.19;5089960;28;20441;-75
2022/10/25 00:13:13;;;;;;;12.00;6.87;;;;;;;-143.84;67.18;45079.53;5089967;28;20439;-75
2022/10/25 00:15:41;;;;;;;10.00;7.03;;;;;;;-143.84;67.18;45098.56;5090037;28;20446;-75
2022/10/25 00:18:08;;;;;;;8.77;6.37;;;;;;;-143.84;67.47;45102.38;5089951;28;20441;-75
2022/10/25 00:20:37;;;;;;;9.43;6.60;;;;;;;-143.84;67.64;45087.16;5089704;28;21040;-75
2022/10/25 00:23:04;;;;;;;7.80;6.80;;;;;;;-143.84;67.71;45121.44;5089597;28;20462;-75
2022/10/25 00:25:31;;;;;;;9.93;6.77;;;;;;;-143.84;67.93;45108.09;5090048;28;20445;-75
2022/10/25 00:27:58;;;;;;;11.47;7.03;;;;;;;-143.84;68.15;45079.53;5089541;28;20446;-75
2022/10/25 00:30:27;;;;;;;8.10;7.30;;;;;;;-143.84;68.62;45094.78;5089834;28;20437;-75
2022/10/25 00:32:54;;;;;;;9.20;5.87;;;;;;;-143.84;69.30;45089.06;5083947;28;20467;-75
2022/10/25 00:35:21;;;;;;;13.07;7.10;;;;;;;-143.84;69.99;45068.13;5068730;28;20479;-75
2022/10/25 00:37:48;;;;;;;12.97;7.40;;;;;;;-143.84;70.90;45087.16;5069227;28;20922;-75
2022/10/25 00:40:16;;;;;;;15.83;6.33;;;;;;;-143.84;71.51;45108.09;5068793;28;21008;-75
2022/10/25 00:42:43;;;;;;;10.47;6.87;;;;;;;-143.84;71.91;45104.28;5067982;28;20445;-75
2022/10/25 00:45:20;;;;;;;8.30;6.17;;;;;;;-143.84;71.81;45106.19;5068917;28;20485;-75
2022/10/25 00:47:54;;;;;;;9.20;6.87;;;;;;;-143.84;72.13;45117.63;5069169;28;20896;-75
2022/10/25 00:50:33;;;;;;;8.83;7.20;;;;;;;-143.84;72.46;45090.97;5071065;28;20462;-75
2022/10/25 00:53:07;;;;;;;9.33;6.90;;;;;;;-143.84;72.78;45111.91;5069063;28;20939;-75
2022/10/25 00:55:35;;;;;;;7.87;7.00;;;;;;;-143.84;73.03;45100.47;5069545;28;20449;-75
2022/10/25 00:58:07;;;;;;;8.83;6.83;;;;;;;-143.84;72.85;45106.19;5068873;28;21024;-75
2022/10/25 01:00:35;;;;;;;11.97;6.70;;;;;;;-143.84;72.85;45096.66;5069098;28;20445;-75
2022/10/25 01:03:05;;;;;;;14.63;6.60;;;;;;;-143.84;72.78;45125.22;5069194;28;20437;-75
2022/10/25 01:05:33;;;;;;;8.83;6.73;;;;;;;-143.84;72.60;45102.38;5068929;28;20448;-75
2022/10/25 01:08:01;;;;;;;7.77;6.77;;;;;;;-143.84;72.56;45110.00;5068954;28;20437;-75
2022/10/25 01:10:28;;;;;;;12.50;7.53;;;;;;;-143.84;72.44;45104.28;5068956;28;20507;-75
2022/10/25 01:12:55;;;;;;;13.43;7.20;;;;;;;-143.84;72.91;45106.19;5069067;28;20856;-75
2022/10/25 01:15:28;;;;;;;8.70;6.30;;;;;;;-143.84;72.97;45089.06;5069140;28;20860;-75
2022/10/25 01:18:04;;;;;;;12.50;7.10;;;;;;;-143.84;73.45;45113.81;5069225;28;20530;-75
2022/10/25 01:21:12;;;;;;;12.20;7.90;;;;;;;-143.84;73.79;45098.56;5068730;28;20500;-75
2022/10/25 01:24:05;;;;;;;12.80;6.87;;;;;;;-143.84;74.64;45110.00;5006920;28;20444;-75
2022/10/25 01:26:55;;;;;;;14.93;6.87;;;;;;;-143.84;74.92;45098.56;5006831;28;20440;-75
2022/10/25 01:29:40;;;;;;;7.73;6.93;;;;;;;-143.84;75.28;45094.78;5054997;28;20448;-75
2022/10/25 01:32:14;;;;;;;8.07;6.77;;;;;;;-143.84;75.24;45102.38;5068660;28;20447;-75
2022/10/25 01:34:46;;;;;;;8.23;7.40;;;;;;;-143.84;75.88;45100.47;5068941;28;21103;-75
2022/10/25 01:37:21;;;;;;;8.17;7.00;;;;;;;-143.84;76.25;45108.09;5050796;28;20482;-75
2022/10/25 01:39:54;;;;;;;11.20;8.50;;;;;;;-143.84;76.59;45117.63;5068830;28;20441;-75
2022/10/25 01:42:30;;;;;;;7.90;7.10;;;;;;;-143.84;76.49;45110.00;5070789;28;20441;-75
2022/10/25 01:45:07;;;;;;;9.10;7.43;;;;;;;-143.84;76.75;45102.38;5079821;28;20440;-75
2022/10/25 01:47:39;;;;;;;9.40;7.10;;;;;;;-143.84;76.89;45100.47;5084216;28;20455;-75
2022/10/25 01:50:13;;;;;;;8.17;7.33;;;;;;;-143.84;76.85;45094.78;5072131;28;20887;-75
2022/10/25 01:52:40;;;;;;;9.23;8.27;;;;;;;-143.84;76.92;45111.91;5072196;28;20442;-75
2022/10/25 01:55:10;;;;;;;10.30;7.77;;;;;;;-143.84;77.17;45087.16;5072046;28;20426;-75
2022/10/25 01:57:52;;;;;;;10.40;7.30;;;;;;;-143.84;76.89;45106.19;5071929;28;20547;-75
2022/10/25 02:00:22;;;;;;;11.10;7.17;;;;;;;-143.84;76.36;45117.63;5071802;28;20502;-75
2022/10/25 02:03:01;;;;;;;12.77;10.00;;;;;;;-143.84;79.21;45110.00;5071828;28;20444;-75
2022/10/25 02:05:37;;;;;;;18.67;10.93;;;;;;;-143.84;82.50;45100.47;5071854;28;20449;-75
2022/10/25 02:08:09;;;;;;;12.23;10.93;;;;;;;-143.84;84.52;45110.00;5071806;28;20472;-75
2022/10/25 02:10:41;;;;;;;16.57;13.00;;;;;;;-143.84;86.36;45089.06;5071919;28;20872;-75
2022/10/25 02:13:18;;;;;;;18.00;13.20;;;;;;;-143.84;86.52;45111.91;5071888;28;20506;-75
2022/10/25 02:15:53;;;;;;;16.37;10.77;;;;;;;-143.84;86.19;45104.28;5071753;28;20490;-75
2022/10/25 02:18:26;;;;;;;14.30;12.17;;;;;;;-143.84;85.68;45090.97;5071592;28;20484;-75
2022/10/25 02:20:55;;;;;;;13.03;10.37;;;;;;;-143.84;85.07;45121.44;5072030;28;20829;-75
2022/10/25 02:23:25;;;;;;;10.13;8.90;;;;;;;-143.84;84.60;45115.72;5071524;28;20474;-75
2022/10/25 02:25:53;;;;;;;20.30;12.43;;;;;;;-143.84;84.24;45102.38;5071518;28;20441;-75
2022/10/25 02:28:25;;;;;;;12.50;11.20;;;;;;;-143.84;84.26;45111.91;5071738;28;20919;-75
2022/10/25 02:30:54;;;;;;;14.70;10.30;;;;;;;-143.84;84.29;45132.84;5071487;28;20499;-75
2022/10/25 02:33:23;;;;;;;13.80;10.97;;;;;;;-143.84;84.22;45106.19;5071062;28;20441;-75
2022/10/25 02:36:06;;;;;;;14.10;10.10;;;;;;;-143.84;83.74;45102.38;5071418;28;20517;-75
2022/10/25 02:38:34;;;;;;;9.43;8.60;;;;;;;-143.84;83.26;45130.94;5071522;28;20444;-75
2022/10/25 02:41:04;;;;;;;8.23;7.43;;;;;;;-143.84;82.38;45100.47;5059212;28;20507;-75
2022/10/25 02:43:31;;;;;;;8.50;7.57;;;;;;;-143.84;81.68;45125.22;5051282;28;21014;-75
2022/10/25 02:45:58;;;;;;;9.17;8.17;;;;;;;-143.84;80.86;45096.66;5051336;28;20495;-75
2022/10/25 02:48:27;;;;;;;15.60;8.43;;;;;;;-143.84;80.80;45121.44;5057016;28;20836;-75
2022/10/25 02:50:54;;;;;;;10.47;8.53;;;;;;;-143.84;80.85;45083.34;5071067;28;20456;-75
2022/10/25 02:53:21;;;;;;;10.07;9.07;;;;;;;-143.84;80.94;45111.91;5071099;28;20883;-75
2022/10/25 02:55:48;;;;;;;17.67;10.50;;;;;;;-143.84;81.69;45129.03;5070792;28;20438;-75
2022/10/25 02:58:16;;;;;;;22.13;10.90;;;;;;;-143.84;82.78;45129.03;5070790;28;20473;-75
2022/10/25 03:00:43;;;;;;;18.77;10.10;;;;;;;-143.84;83.49;45127.13;5070779;28;20978;-75
2022/10/25 03:03:10;;;;;;;10.73;9.13;;;;;;;-143.84;83.13;45125.22;5070838;28;20459;-75
2022/10/25 03:05:38;;;;;;;9.90;8.27;;;;;;;-143.84;82.84;45087.16;5070709;28;20444;-75
2022/10/25 03:08:06;;;;;;;10.87;8.80;;;;;;;-143.84;82.77;45127.13;5070582;28;20486;-75
2022/10/25 03:10:36;;;;;;;12.10;8.50;;;;;;;-143.84;82.71;45113.81;5070806;28;20570;-75
2022/10/25 03:13:03;;;;;;;14.33;11.90;;;;;;;-143.84;82.72;45113.81;5070715;28;20512;-75
2022/10/25 03:15:30;;;;;;;14.20;11.87;;;;;;;-143.84;82.56;45119.53;5070472;28;20442;-75
2022/10/25 03:17:58;;;;;;;13.53;12.13;;;;;;;-143.84;82.41;45132.84;5070324;28;20472;-75
2022/10/25 03:20:25;;;;;;;15.73;13.00;;;;;;;-143.84;81.90;45123.34;5070622;28;20811;-75
2022/10/25 03:22:53;;;;;;;21.93;14.67;;;;;;;-143.84;81.52;45102.38;5070675;28;20438;-75
2022/10/25 03:25:20;;;;;;;17.63;13.30;;;;;;;-143.84;80.85;45100.47;5070283;28;20446;-75
2022/10/25 03:27:50;;;;;;;16.33;13.17;;;;;;;-143.84;83.95;45100.47;5070158;28;20433;-75
2022/10/25 03:30:17;;;;;;;16.40;14.73;;;;;;;-143.84;88.47;45127.13;5070167;28;20511;-76
2022/10/25 03:32:44;;;;;;;19.30;17.40;;;;;;;-143.84;90.09;45130.94;5070149;28;21322;-75
2022/10/25 03:35:12;;;;;;;22.67;16.73;;;;;;;-143.84;91.52;45123.34;5070213;28;20487;-75
2022/10/25 03:37:39;;;;;;;22.43;19.27;;;;;;;-143.84;92.61;45121.44;5069994;28;20477;-75
2022/10/25 03:40:09;;;;;;;21.97;18.70;;;;;;;-143.84;93.28;45136.66;5070123;28;20442;-76
2022/10/25 03:42:36;;;;;;;19.57;17.47;;;;;;;-143.84;93.61;45140.47;5069867;28;21079;-75
2022/10/25 03:45:03;;;;;;;21.60;17.60;;;;;;;-143.84;93.96;45115.72;5069822;28;20506;-75
2022/10/25 03:47:30;;;;;;;28.20;18.47;;;;;;;-143.84;94.40;45100.47;5069908;28;20511;-75
2022/10/25 03:49:57;;;;;;;21.23;19.10;;;;;;;-143.84;94.99;45127.13;5069721;28;20992;-75
2022/10/25 03:52:26;;;;;;;24.90;19.60;;;;;;;-143.84;95.05;45117.63;5082512;28;20457;-75
2022/10/25 03:54:53;;;;;;;25.37;20.00;;;;;;;-143.84;95.28;45119.53;5089882;28;20859;-74
2022/10/25 03:57:22;;;;;;;22.63;20.13;;;;;;;-143.84;95.14;45134.75;5089587;28;20475;-77
2022/10/25 03:59:49;;;;;;;19.63;17.37;;;;;;;-143.84;94.23;45108.09;5089664;28;20470;-75
2022/10/25 04:02:16;;;;;;;24.23;18.33;;;;;;;-143.84;93.84;45113.81;5090114;28;20462;-74
2022/10/25 04:04:43;;;;;;;19.20;17.37;;;;;;;-143.84;94.24;45130.94;5088455;28;21003;-74
2022/10/25 04:07:11;;;;;;;25.57;19.63;;;;;;;-143.84;94.45;45113.81;5089607;28;21061;-74
2022/10/25 04:09:39;;;;;;;24.67;19.20;;;;;;;-143.84;94.60;45136.66;5081698;28;20452;-74
2022/10/25 04:12:06;;;;;;;24.73;20.17;;;;;;;-143.84;94.22;45121.44;5078085;28;20445;-74
2022/10/25 04:14:35;;;;;;;22.27;18.87;;;;;;;-143.84;93.57;45083.34;5080123;28;20455;-75
2022/10/25 04:17:02;;;;;;;31.67;18.13;;;;;;;-143.84;92.00;45089.06;5077392;28;20479;-75
2022/10/25 04:19:29;;;;;;;24.00;15.10;;;;;;;-143.84;91.41;45111.91;5068414;28;21019;-73
2022/10/25 04:21:56;;;;;;;16.63;14.27;;;;;;;-143.84;92.11;45100.47;5072560;28;20424;-74
2022/10/25 04:24:24;;;;;;;25.27;16.27;;;;;;;-143.84;93.03;45111.91;5089327;28;20440;-74
2022/10/25 04:26:51;;;;;;;22.17;16.50;;;;;;;-143.84;93.39;45117.63;5089915;28;20438;-74
2022/10/25 04:29:18;;;;;;;26.27;19.03;;;;;;;-143.84;94.02;45110.00;5088904;28;20440;-74
2022/10/25 04:31:46;;;;;;;26.73;21.90;;;;;;;-143.84;94.26;45142.38;5089675;28;21192;-73
2022/10/25 04:34:14;;;;;;;20.87;18.77;;;;;;;-143.84;94.56;45121.44;5089097;28;20442;-74
2022/10/25 04:36:41;;;;;;;27.50;20.57;;;;;;;-143.84;94.72;45113.81;5090141;28;20443;-71
2022/10/25 04:39:08;;;;;;;25.50;22.10;;;;;;;-143.84;94.79;45106.19;5079589;28;20481;-73
2022/10/25 04:41:36;;;;;;;36.23;21.60;;;;;;;-143.84;94.65;45102.38;5069514;28;20448;-74
2022/10/25 04:44:03;;;;;;;30.90;21.90;;;;;;;-143.84;94.88;45123.34;5069312;28;20446;-73
2022/10/25 04:46:30;;;;;;;26.27;20.40;;;;;;;-143.84;95.42;45129.03;5069353;28;20446;-74
2022/10/25 04:48:59;;;;;;;29.00;21.23;;;;;;;-143.84;96.03;45123.34;5069360;28;20547;-74
2022/10/25 04:51:26;;;;;;;31.10;22.73;;;;;;;-143.84;96.42;45098.56;5069453;28;20456;-74
2022/10/25 04:53:53;;;;;;;27.23;22.73;;;;;;;-143.84;96.70;45125.22;5069160;28;20502;-74
2022/10/25 04:56:21;;;;;;;29.93;23.37;;;;;;;-143.84;96.68;45136.66;5069645;28;20430;-74
2022/10/25 04:58:48;;;;;;;34.40;26.53;;;;;;;-143.84;96.68;45138.56;5069364;28;20477;-74
2022/10/25 05:01:17;;;;;;;31.70;24.63;;;;;;;-143.84;96.60;45123.34;5069192;28;20502;-74
2022/10/25 05:03:44;;;;;;;37.23;25.53;;;;;;;-143.84;96.81;45111.91;5069236;28;20445;-74
2022/10/25 05:06:15;;;;;;;34.00;28.13;;;;;;;-143.84;96.98;45127.13;5069451;28;20500;-74
2022/10/25 05:08:44;;;;;;;32.53;25.10;;;;;;;-143.84;96.96;45090.97;5068904;28;20446;-74
2022/10/25 05:11:14;;;;;;;34.20;23.80;;;;;;;-143.84;97.07;45121.44;5069163;28;20451;-74
2022/10/25 05:13:42;;;;;;;28.63;23.67;;;;;;;-143.84;97.15;45100.47;5069261;28;20502;-74
2022/10/25 05:16:13;;;;;;;25.57;22.07;;;;;;;-143.84;97.38;45119.53;5069014;28;20911;-74
2022/10/25 05:18:41;;;;;;;28.67;24.93;;;;;;;-143.84;97.43;45117.63;5072398;28;20474;-74
2022/10/25 05:21:10;;;;;;;30.50;22.87;;;;;;;-143.84;97.18;45117.63;5073036;28;21409;-74
2022/10/25 05:23:39;;;;;;;41.00;23.00;;;;;;;-143.84;96.71;45129.03;5071847;28;20445;-74
2022/10/25 05:26:07;;;;;;;28.37;22.63;;;;;;;-143.84;96.72;45113.81;5071864;28;20439;-74
2022/10/25 05:28:36;;;;;;;26.10;22.10;;;;;;;-143.84;96.64;45110.00;5072545;28;20455;-74
2022/10/25 05:31:04;;;;;;;28.20;22.30;;;;;;;-143.84;96.75;45117.63;5071740;28;20943;-74
2022/10/25 05:33:32;;;;;;;24.07;20.50;;;;;;;-143.84;96.30;45111.91;5071010;28;20446;-74
2022/10/25 05:36:00;;;;;;;30.87;21.60;;;;;;;-143.84;96.41;45098.56;5071209;28;20443;-75
2022/10/25 05:38:27;;;;;;;22.17;19.77;;;;;;;-143.84;96.38;45138.56;5070821;28;20479;-74
2022/10/25 05:40:56;;;;;;;24.23;21.13;;;;;;;-143.84;96.47;45100.47;5070928;28;20444;-74
2022/10/25 05:43:24;;;;;;;32.30;20.20;;;;;;;-143.84;96.10;45108.09;5070866;28;20447;-74
2022/10/25 05:45:52;;;;;;;21.53;18.17;;;;;;;-143.84;95.10;45102.38;5072658;28;20522;-75
2022/10/25 05:48:19;;;;;;;21.80;17.27;;;;;;;-143.84;94.37;45096.66;5072173;28;20478;-75
2022/10/25 05:50:47;;;;;;;22.07;13.97;;;;;;;-143.84;92.38;45130.94;5071655;28;20472;-75
2022/10/25 05:53:14;;;;;;;20.40;13.70;;;;;;;-143.84;88.42;45123.34;5071712;28;20443;-74
2022/10/25 05:55:41;;;;;;;20.07;12.80;;;;;;;-143.84;86.91;45106.19;5071663;28;21160;-75
2022/10/25 05:58:10;;;;;;;27.40;13.20;;;;;;;-143.84;86.39;45113.81;5071456;28;20480;-74
2022/10/25 06:00:37;;;;;;;19.03;12.90;;;;;;;-143.84;84.22;45090.97;5071350;28;20444;-75
2022/10/25 06:03:04;;;;;;;23.17;13.23;;;;;;;-143.84;81.13;45108.09;5071780;28;20841;-75
2022/10/25 06:05:33;;;;;;;20.83;13.83;;;;;;;-143.84;79.25;45075.72;5072182;28;20429;-75
2022/10/25 06:08:00;;;;;;;16.37;10.97;;;;;;;-143.84;77.28;45090.97;5072302;28;20452;-75
2022/10/25 06:10:27;;;;;;;20.53;11.83;;;;;;;-143.84;75.89;45081.44;5072262;28;20436;-75
2022/10/25 06:12:54;;;;;;;33.33;10.93;;;;;;;-143.84;74.24;45108.09;5072510;28;20440;-75
2022/10/25 06:15:23;;;;;;;29.10;10.00;;;;;;;-143.84;72.73;45073.81;5072090;28;20452;-75
2022/10/25 06:17:50;;;;;;;15.47;9.60;;;;;;;-143.84;70.48;45087.16;5072259;28;20488;-75
2022/10/25 06:20:17;;;;;;;15.87;10.50;;;;;;;-143.84;69.23;45111.91;5071874;28;20436;-75
2022/10/25 06:22:45;;;;;;;22.53;10.43;;;;;;;-143.84;67.81;45083.34;5072103;28;20440;-75
2022/10/25 06:25:12;;;;;;;20.70;9.43;;;;;;;-143.84;66.27;45070.00;5072047;28;20445;-75
2022/10/25 06:27:39;;;;;;;15.60;9.50;;;;;;;-143.84;64.16;45094.78;5071637;28;20445;-75
2022/10/25 06:30:07;;;;;;;13.87;7.97;;;;;;;-143.84;62.92;45073.81;5072078;28;20530;-75
2022/10/25 06:32:37;;;;;;;15.40;8.83;;;;;;;-143.84;61.86;45087.16;5071824;28;20958;-75
2022/10/25 06:35:05;;;;;;;13.47;8.97;;;;;;;-143.84;59.96;45077.63;5071762;28;20463;-75
2022/10/25 06:37:32;;;;;;;15.20;9.40;;;;;;;-143.84;58.23;45064.31;5071712;28;20440;-74
2022/10/25 06:39:59;;;;;;;20.80;9.10;;;;;;;-143.84;60.01;45083.34;5072080;28;21282;-74
2022/10/25 06:42:26;;;;;;;18.07;9.73;;;;;;;-143.84;59.05;45058.59;5072280;28;20441;-74
2022/10/25 06:44:53;;;;;;;19.20;9.57;;;;;;;-143.84;57.94;45039.53;5071597;28;20507;-74
2022/10/25 06:47:20;;;;;;;16.17;10.47;;;;;;;-143.84;56.74;45056.69;5071865;28;20475;-74
2022/10/25 06:49:49;;;;;;;25.23;10.33;;;;;;;-143.84;55.87;45045.25;5071276;28;20480;-74
2022/10/25 06:52:16;;;;;;;17.53;11.37;;;;;;;-143.84;55.91;45064.31;5072121;28;20514;-74
2022/10/25 06:54:43;;;;;;;15.33;9.67;;;;;;;-143.84;56.48;45062.41;5071885;28;21000;-74
2022/10/25 06:57:10;;;;;;;12.43;9.40;;;;;;;-143.84;56.03;45071.91;5071381;28;20437;-74
2022/10/25 06:59:37;;;;;;;15.70;9.10;;;;;;;-143.84;55.56;45066.22;5071511;28;20484;-74
2022/10/25 07:02:04;;;;;;;20.03;10.20;;;;;;;-143.84;57.28;45043.34;5071319;28;20954;-74
2022/10/25 07:04:32;;;;;;;15.03;10.40;;;;;;;-143.84;55.64;45037.66;5071157;28;20429;-74
2022/10/25 07:07:00;;;;;;;14.90;11.30;;;;;;;-143.84;55.03;45041.44;5071054;28;20437;-74
2022/10/25 07:09:28;;;;;;;16.37;10.77;;;;;;;-143.84;53.77;45056.69;5071228;28;20433;-74
2022/10/25 07:11:55;;;;;;;16.37;9.70;;;;;;;-143.84;53.93;45062.41;5070949;28;20931;-74
2022/10/25 07:14:22;;;;;;;16.27;9.80;;;;;;;-143.84;53.83;45068.13;5071032;28;20444;-74
2022/10/25 07:16:49;;;;;;;17.03;9.53;;;;;;;-143.84;53.88;45039.53;5070837;28;20448;-74
2022/10/25 07:19:17;;;;;;;16.70;11.07;;;;;;;-143.84;51.31;45041.44;5070778;28;20465;-75
2022/10/25 07:21:44;;;;;;;17.30;9.77;;;;;;;-143.84;51.96;45035.75;5070943;28;20825;-75
2022/10/25 07:24:14;;;;;;;26.43;10.40;;;;;;;-143.84;52.15;45050.97;5071092;28;20425;-75
2022/10/25 07:26:41;;;;;;;19.03;8.93;;;;;;;-143.84;51.33;45056.69;5071000;28;20518;-75
2022/10/25 07:29:08;;;;;;;20.47;9.53;;;;;;;-143.84;50.58;45037.66;5070504;28;21032;-74
2022/10/25 07:31:38;;;;;;;24.20;9.93;;;;;;;-143.84;50.85;45037.66;5069575;28;20452;-74
2022/10/25 07:34:05;;;;;;;16.27;10.07;;;;;;;-143.84;50.03;45031.94;5069995;28;20433;-74
2022/10/25 07:36:33;;;;;;;16.80;9.23;;;;;;;-143.84;51.25;45035.75;5069690;28;20441;-74
2022/10/25 07:39:00;;;;;;;18.73;9.27;;;;;;;-143.84;49.86;45068.13;5068615;28;20476;-74
2022/10/25 07:41:29;;;;;;;10.77;7.90;;;;;;;-143.84;50.05;45028.13;5069417;28;20444;-74
2022/10/25 07:43:56;;;;;;;14.73;8.43;;;;;;;-143.84;50.07;45035.75;5069693;28;20456;-74
2022/10/25 07:46:24;;;;;;;26.03;8.40;;;;;;;-143.84;49.15;45035.75;5069827;28;21337;-74
2022/10/25 07:48:52;;;;;;;23.70;8.47;;;;;;;-143.84;48.80;45049.06;5069473;28;20484;-74
2022/10/25 07:51:19;;;;;;;21.70;9.00;;;;;;;-143.84;48.68;45058.59;5069493;28;20977;-74
2022/10/25 07:53:46;;;;;;;12.17;8.60;;;;;;;-143.84;49.36;45031.94;5069511;28;20440;-74
2022/10/25 07:56:15;;;;;;;12.17;8.40;;;;;;;-143.84;50.89;45039.53;5069328;28;20970;-74
2022/10/25 07:58:43;;;;;;;15.63;9.50;;;;;;;-143.84;48.48;45031.94;5069664;28;20480;-74
2022/10/25 08:01:11;;;;;;;16.30;8.10;;;;;;;-143.84;49.10;45018.59;5069491;28;20478;-74
2022/10/25 08:03:39;;;;;;;15.83;8.60;;;;;;;-143.84;48.52;45030.03;5069779;28;20440;-74
2022/10/25 08:06:06;;;;;;;12.63;9.07;;;;;;;-143.84;49.03;45035.75;5069701;28;20853;-74
2022/10/25 08:08:33;;;;;;;17.90;9.10;;;;;;;-143.84;48.70;45024.31;5069567;28;20433;-73
2022/10/25 08:11:06;;;;;;;15.03;9.07;;;;;;;-143.84;48.59;45026.22;5069961;28;21020;-72
2022/10/25 08:13:35;;;;;;;16.93;8.53;;;;;;;-143.84;47.97;45010.97;5069764;28;20441;-72
2022/10/25 08:16:05;;;;;;;21.30;9.30;;;;;;;-143.84;46.74;45052.88;5069987;28;20445;-72
2022/10/25 08:18:33;;;;;;;11.27;7.43;;;;;;;-143.84;47.85;45024.31;5070126;28;20473;-72
2022/10/25 08:21:01;;;;;;;14.83;8.70;;;;;;;-143.84;47.26;45010.97;5070000;28;20448;-72
2022/10/25 08:23:30;;;;;;;16.13;8.83;;;;;;;-143.84;46.22;45010.97;5070064;28;20445;-72
2022/10/25 08:25:57;;;;;;;20.20;7.70;;;;;;;-143.84;47.04;45041.44;5070161;28;20459;-72
2022/10/25 08:28:24;;;;;;;12.80;7.43;;;;;;;-143.84;46.43;45030.03;5069856;28;21098;-72
2022/10/25 08:30:54;;;;;;;19.93;10.00;;;;;;;-143.84;46.21;45028.13;5069557;28;20463;-72
2022/10/25 08:33:23;;;;;;;13.53;8.63;;;;;;;-143.84;46.39;45033.84;5069443;28;20445;-72
2022/10/25 08:35:50;;;;;;;11.83;6.90;;;;;;;-143.84;46.02;45049.06;5070120;28;20510;-72
2022/10/25 08:38:18;;;;;;;13.73;7.53;;;;;;;-143.84;46.02;45016.69;5069613;28;20848;-72
2022/10/25 08:40:54;;;;;;;27.43;8.27;;;;;;;-143.84;45.67;45026.22;5069361;28;21023;-72
2022/10/25 08:43:47;;;;;;;11.17;7.53;;;;;;;-143.84;46.42;45041.44;5069253;28;20451;-72
2022/10/25 08:46:20;;;;;;;9.73;8.10;;;;;;;-143.84;44.21;45005.28;5069393;28;21135;-72
2022/10/25 08:48:54;;;;;;;12.70;7.70;;;;;;;-143.84;44.16;45026.22;5068806;28;20476;-72
2022/10/25 08:51:27;;;;;;;11.23;8.03;;;;;;;-143.84;44.78;45010.97;5071623;28;20452;-72
2022/10/25 08:54:00;;;;;;;26.30;8.10;;;;;;;-143.84;43.45;45018.59;5073099;28;20786;-72
2022/10/25 08:56:28;;;;;;;13.90;8.23;;;;;;;-143.84;43.18;45016.69;5073616;28;20483;-72
2022/10/25 08:58:58;;;;;;;14.73;8.27;;;;;;;-143.84;42.94;45014.78;5073210;28;20476;-72
2022/10/25 09:01:29;;;;;;;17.60;7.73;;;;;;;-143.84;43.54;45022.41;5073486;28;20852;-72
2022/10/25 09:03:59;;;;;;;12.57;8.10;;;;;;;-143.84;42.39;44997.66;5072947;28;20440;-72
2022/10/25 09:06:34;;;;;;;17.53;7.73;;;;;;;-143.84;42.41;45007.19;5073181;28;20448;-72
2022/10/25 09:09:16;;;;;;;21.03;8.07;;;;;;;-143.84;42.42;45022.41;5073248;28;20490;-72
2022/10/25 09:12:03;;;;;;;14.70;7.80;;;;;;;-143.84;41.85;45030.03;5073421;28;20536;-72
2022/10/25 09:14:41;;;;;;;16.87;8.40;;;;;;;-143.84;41.60;44990.03;5073414;28;20441;-72
2022/10/25 09:17:16;;;;;;;10.10;8.10;;;;;;;-143.84;41.54;45014.78;5073109;28;20440;-72
2022/10/25 09:19:58;;;;;;;11.27;7.73;;;;;;;-143.84;41.29;45009.09;5073099;28;20560;-72
2022/10/25 09:22:27;;;;;;;16.43;8.40;;;;;;;-143.84;41.68;44997.66;5072895;28;20506;-72
2022/10/25 09:25:00;;;;;;;13.83;8.30;;;;;;;-143.84;41.36;44993.84;5072989;28;20425;-72
2022/10/25 09:27:35;;;;;;;10.93;8.43;;;;;;;-143.84;41.11;45022.41;5072908;28;20440;-72
2022/10/25 09:30:06;;;;;;;10.17;7.53;;;;;;;-143.84;41.27;44995.75;5072811;28;20523;-72
2022/10/25 09:32:38;;;;;;;13.50;8.13;;;;;;;-143.84;41.40;45020.50;5072776;28;20946;-72
2022/10/25 09:35:15;;;;;;;18.13;7.87;;;;;;;-143.84;41.54;45012.88;5072987;28;20814;-72
2022/10/25 09:37:46;;;;;;;10.67;8.40;;;;;;;-143.84;40.78;45030.03;5072962;28;20983;-72
2022/10/25 09:40:16;;;;;;;15.33;8.73;;;;;;;-143.84;41.42;44972.91;5073121;28;20468;-72
2022/10/25 09:42:50;;;;;;;13.47;8.67;;;;;;;-143.84;41.34;45016.69;5072896;28;20428;-72
2022/10/25 09:45:24;;;;;;;17.83;8.13;;;;;;;-143.84;40.03;45009.09;5072574;28;20448;-72
2022/10/25 09:47:58;;;;;;;11.23;8.93;;;;;;;-143.84;40.29;45003.38;5072164;28;20522;-72
2022/10/25 09:50:30;;;;;;;12.87;7.33;;;;;;;-143.84;40.77;45014.78;5072776;28;20451;-72
2022/10/25 09:53:10;;;;;;;11.10;8.70;;;;;;;-143.84;40.56;44988.13;5072472;28;20441;-72
2022/10/25 09:55:46;;;;;;;12.97;7.70;;;;;;;-143.84;40.31;44995.75;5072755;28;20520;-72
2022/10/25 09:58:18;;;;;;;12.20;8.20;;;;;;;-143.84;40.94;45007.19;5072441;28;20531;-72
2022/10/25 10:00:46;;;;;;;16.83;8.00;;;;;;;-143.84;40.98;44997.66;5072652;28;20868;-72
2022/10/25 10:03:14;;;;;;;14.23;7.87;;;;;;;-143.84;40.67;45031.94;5072047;28;20429;-72
2022/10/25 10:05:48;;;;;;;12.97;7.00;;;;;;;-143.84;40.11;45026.22;5072483;28;20440;-72
2022/10/25 10:08:15;;;;;;;14.93;7.20;;;;;;;-143.84;40.50;45001.47;5072535;28;20521;-72
2022/10/25 10:10:43;;;;;;;10.43;7.87;;;;;;;-143.84;40.04;45022.41;5072466;28;20871;-72
2022/10/25 10:13:20;;;;;;;12.17;6.90;;;;;;;-143.84;40.74;45016.69;5072140;28;20849;-72
2022/10/25 10:15:53;;;;;;;16.83;8.77;;;;;;;-143.84;40.26;45007.19;5072223;28;20452;-72
2022/10/25 10:18:25;;;;;;;9.17;7.60;;;;;;;-143.84;40.43;45001.47;5072428;28;20514;-72
2022/10/25 10:21:06;;;;;;;13.63;6.77;;;;;;;-143.84;40.59;44993.84;5072190;28;20997;-72
2022/10/25 10:23:44;;;;;;;14.70;7.57;;;;;;;-143.84;41.63;45007.19;5072549;28;20862;-72
2022/10/25 10:26:18;;;;;;;13.93;7.87;;;;;;;-143.84;41.29;45014.78;5072157;28;21031;-72
2022/10/25 10:28:48;;;;;;;10.27;7.03;;;;;;;-143.84;40.71;45022.41;5072131;28;20448;-72
2022/10/25 10:31:16;;;;;;;15.43;7.63;;;;;;;-143.84;41.65;45016.69;5072256;28;21291;-72
2022/10/25 10:33:49;;;;;;;7.33;6.63;;;;;;;-143.84;41.59;45007.19;5072246;28;20459;-72
2022/10/25 10:36:27;;;;;;;9.10;7.10;;;;;;;-143.84;41.36;45009.09;5071758;28;20425;-72
2022/10/25 10:38:55;;;;;;;13.83;7.13;;;;;;;-143.84;40.60;45035.75;5071665;28;20436;-72
2022/10/25 10:41:25;;;;;;;10.60;6.43;;;;;;;-143.84;41.46;45020.50;5072089;28;20522;-72
2022/10/25 10:44:08;;;;;;;13.80;6.97;;;;;;;-143.84;43.11;45003.38;5071575;28;20452;-72
2022/10/25 10:46:36;;;;;;;11.80;6.60;;;;;;;-143.84;39.82;45010.97;5071750;28;20478;-72
2022/10/25 10:49:03;;;;;;;16.20;6.70;;;;;;;-143.84;40.97;44997.66;5071649;28;20481;-72
2022/10/25 10:51:42;;;;;;;17.17;7.00;;;;;;;-143.84;41.64;45001.47;5072074;28;20539;-72
2022/10/25 10:54:15;;;;;;;13.43;7.10;;;;;;;-143.84;41.45;45009.09;5071638;28;20449;-72
2022/10/25 10:56:42;;;;;;;11.47;6.97;;;;;;;-143.84;41.79;45014.78;5071254;28;20498;-72
2022/10/25 10:59:27;;;;;;;15.57;6.40;;;;;;;-143.84;42.80;45020.50;5071574;28;20541;-72
2022/10/25 11:01:55;;;;;;;16.40;7.40;;;;;;;-143.84;42.43;45014.78;5071391;28;20449;-72
2022/10/25 11:04:22;;;;;;;17.53;6.90;;;;;;;-143.84;43.64;45039.53;5071394;28;20449;-72
2022/10/25 11:06:50;;;;;;;13.33;8.83;;;;;;;-143.84;43.98;45028.13;5071497;28;20429;-72
2022/10/25 11:09:24;;;;;;;12.83;6.93;;;;;;;-143.84;44.39;45010.97;5071264;28;20507;-72
2022/10/25 11:12:10;;;;;;;9.60;6.50;;;;;;;-143.84;43.85;45012.88;5071167;28;21079;-73
2022/10/25 11:14:38;;;;;;;13.53;7.20;;;;;;;-143.84;44.87;44991.94;5069807;28;20467;-72
2022/10/25 11:17:12;;;;;;;12.97;7.30;;;;;;;-143.84;45.02;45014.78;5071148;28;20452;-73
2022/10/25 11:20:02;;;;;;;14.23;8.37;;;;;;;-143.84;45.57;45020.50;5070846;28;20484;-73